ETIH

Hohenfels Army Air Field Airport

Germany
METAR ETIH 220256Z AUTO 21004KT 9999 BKN200 10/08 A3019 RMK AO2 SLP214 T01000083 52013 $
Observed Flight Rules
Sep-22 @ 02:56 UTC (30 minutes ago) Visual Flight Rules
Wind Visibility Clouds
210° at 4 knots 10,000+ meters
Temperatures Readings
Current 10°C / 50°F
Dewpoint 8°C / 46°F
Humidity 88%
Altimeter 30.19" Hg
Pressure 1021.4 hPa
Elevation 442
METAR ETIH 220256Z AUTO 21004KT 9999 BKN200 10/08 A3019 RMK AO2 SLP214 T01000083 52013 $
Observed Flight Rules
Sep-22 @ 02:56 UTC
(30 minutes ago)
VFR
Wind Visibility
210° at 4 knots 10,000+ meters
Clouds
Temperature Dewpoint
10°C / 50°F 8°C / 46°F
Humidity Altimeter Pressure
88% 30.19" Hg 1021.4 hPa